sensor_id;sensor_type;location;lat;lon;timestamp;P1;durP1;ratioP1;P2;durP2;ratioP2
56581;SDS011;42463;52.214;21.238;2022-08-19T01:30:34;15.80;;;11.60;;
56581;SDS011;42463;52.214;21.238;2022-08-19T01:33:03;13.60;;;11.90;;
56581;SDS011;42463;52.214;21.238;2022-08-19T01:35:30;13.50;;;12.10;;
56581;SDS011;42463;52.214;21.238;2022-08-19T01:37:58;15.20;;;12.20;;
56581;SDS011;42463;52.214;21.238;2022-08-19T01:40:32;14.00;;;12.10;;
56581;SDS011;42463;52.214;21.238;2022-08-19T01:43:01;15.10;;;12.30;;
56581;SDS011;42463;52.214;21.238;2022-08-19T01:45:31;13.20;;;11.60;;
56581;SDS011;42463;52.214;21.238;2022-08-19T01:48:00;13.40;;;11.80;;
56581;SDS011;42463;52.214;21.238;2022-08-19T01:50:28;13.30;;;12.00;;
56581;SDS011;42463;52.214;21.238;2022-08-19T01:52:56;14.10;;;11.80;;
56581;SDS011;42463;52.214;21.238;2022-08-19T01:55:23;12.80;;;11.40;;
56581;SDS011;42463;52.214;21.238;2022-08-19T01:57:52;13.60;;;12.10;;
56581;SDS011;42463;52.214;21.238;2022-08-19T02:00:24;15.70;;;12.80;;
56581;SDS011;42463;52.214;21.238;2022-08-19T02:02:54;13.40;;;11.30;;
56581;SDS011;42463;52.214;21.238;2022-08-19T02:05:21;14.50;;;11.80;;
56581;SDS011;42463;52.214;21.238;2022-08-19T02:07:48;13.50;;;12.10;;
56581;SDS011;42463;52.214;21.238;2022-08-19T02:10:17;13.60;;;12.00;;
56581;SDS011;42463;52.214;21.238;2022-08-19T02:12:45;17.80;;;12.00;;
56581;SDS011;42463;52.214;21.238;2022-08-19T02:15:13;14.40;;;12.30;;
56581;SDS011;42463;52.214;21.238;2022-08-19T02:17:42;15.00;;;11.70;;
56581;SDS011;42463;52.214;21.238;2022-08-19T02:20:11;14.50;;;12.40;;
56581;SDS011;42463;52.214;21.238;2022-08-19T02:22:39;13.20;;;11.90;;
56581;SDS011;42463;52.214;21.238;2022-08-19T02:25:23;15.50;;;12.20;;
56581;SDS011;42463;52.214;21.238;2022-08-19T02:27:50;19.90;;;12.70;;
56581;SDS011;42463;52.214;21.238;2022-08-19T02:30:18;15.20;;;12.20;;
56581;SDS011;42463;52.214;21.238;2022-08-19T02:32:44;15.40;;;12.50;;
56581;SDS011;42463;52.214;21.238;2022-08-19T02:35:12;14.40;;;12.20;;
56581;SDS011;42463;52.214;21.238;2022-08-19T02:37:39;13.60;;;11.90;;
56581;SDS011;42463;52.214;21.238;2022-08-19T02:40:23;15.00;;;12.90;;
56581;SDS011;42463;52.214;21.238;2022-08-19T02:42:49;16.20;;;13.60;;
56581;SDS011;42463;52.214;21.238;2022-08-19T02:45:16;16.80;;;12.70;;
56581;SDS011;42463;52.214;21.238;2022-08-19T02:47:43;14.20;;;12.40;;
56581;SDS011;42463;52.214;21.238;2022-08-19T02:50:10;14.50;;;11.90;;
56581;SDS011;42463;52.214;21.238;2022-08-19T02:52:38;13.70;;;12.20;;
56581;SDS011;42463;52.214;21.238;2022-08-19T02:55:07;16.40;;;11.70;;
56581;SDS011;42463;52.214;21.238;2022-08-19T02:57:34;16.50;;;12.50;;
56581;SDS011;42463;52.214;21.238;2022-08-19T03:00:02;16.80;;;12.40;;
56581;SDS011;42463;52.214;21.238;2022-08-19T03:02:31;14.60;;;12.10;;
56581;SDS011;42463;52.214;21.238;2022-08-19T03:04:57;15.40;;;12.70;;
56581;SDS011;42463;52.214;21.238;2022-08-19T03:07:24;13.40;;;11.90;;
56581;SDS011;42463;52.214;21.238;2022-08-19T03:09:52;15.50;;;11.10;;
56581;SDS011;42463;52.214;21.238;2022-08-19T03:12:18;14.00;;;11.70;;
56581;SDS011;42463;52.214;21.238;2022-08-19T03:14:46;14.40;;;11.90;;
56581;SDS011;42463;52.214;21.238;2022-08-19T03:17:12;13.40;;;12.00;;
56581;SDS011;42463;52.214;21.238;2022-08-19T03:19:39;14.70;;;12.70;;
56581;SDS011;42463;52.214;21.238;2022-08-19T03:22:06;13.80;;;11.80;;
56581;SDS011;42463;52.214;21.238;2022-08-19T03:24:32;13.10;;;11.70;;
56581;SDS011;42463;52.214;21.238;2022-08-19T03:26:59;13.90;;;12.30;;
56581;SDS011;42463;52.214;21.238;2022-08-19T03:29:28;14.50;;;11.90;;
56581;SDS011;42463;52.214;21.238;2022-08-19T03:31:56;14.10;;;12.60;;
56581;SDS011;42463;52.214;21.238;2022-08-19T03:34:27;13.50;;;12.10;;
56581;SDS011;42463;52.214;21.238;2022-08-19T03:36:55;17.40;;;12.80;;
56581;SDS011;42463;52.214;21.238;2022-08-19T03:39:24;14.70;;;12.00;;
56581;SDS011;42463;52.214;21.238;2022-08-19T03:41:52;13.30;;;11.90;;
56581;SDS011;42463;52.214;21.238;2022-08-19T03:44:22;15.50;;;12.20;;
56581;SDS011;42463;52.214;21.238;2022-08-19T03:46:50;13.00;;;11.70;;
56581;SDS011;42463;52.214;21.238;2022-08-19T03:49:19;13.60;;;12.20;;
56581;SDS011;42463;52.214;21.238;2022-08-19T03:51:48;16.00;;;12.80;;
56581;SDS011;42463;52.214;21.238;2022-08-19T03:54:17;13.90;;;12.40;;
56581;SDS011;42463;52.214;21.238;2022-08-19T03:56:48;15.40;;;12.80;;
56581;SDS011;42463;52.214;21.238;2022-08-19T03:59:18;14.60;;;12.90;;
56581;SDS011;42463;52.214;21.238;2022-08-19T04:01:49;14.30;;;12.80;;
56581;SDS011;42463;52.214;21.238;2022-08-19T04:04:15;15.80;;;12.00;;
56581;SDS011;42463;52.214;21.238;2022-08-19T04:06:42;12.80;;;11.30;;
56581;SDS011;42463;52.214;21.238;2022-08-19T04:09:11;16.00;;;12.40;;
56581;SDS011;42463;52.214;21.238;2022-08-19T04:11:39;13.00;;;11.60;;
56581;SDS011;42463;52.214;21.238;2022-08-19T04:14:08;15.00;;;12.30;;
56581;SDS011;42463;52.214;21.238;2022-08-19T04:16:37;14.10;;;12.50;;
56581;SDS011;42463;52.214;21.238;2022-08-19T04:19:06;15.20;;;12.50;;
56581;SDS011;42463;52.214;21.238;2022-08-19T04:21:33;13.80;;;11.70;;
56581;SDS011;42463;52.214;21.238;2022-08-19T04:24:00;14.50;;;12.00;;
56581;SDS011;42463;52.214;21.238;2022-08-19T04:26:30;15.40;;;12.50;;
56581;SDS011;42463;52.214;21.238;2022-08-19T04:28:58;16.20;;;12.90;;
56581;SDS011;42463;52.214;21.238;2022-08-19T04:31:29;14.20;;;12.00;;
56581;SDS011;42463;52.214;21.238;2022-08-19T04:34:00;14.20;;;12.70;;
56581;SDS011;42463;52.214;21.238;2022-08-19T04:36:32;14.40;;;12.30;;
56581;SDS011;42463;52.214;21.238;2022-08-19T04:39:03;14.50;;;12.10;;
56581;SDS011;42463;52.214;21.238;2022-08-19T04:41:32;16.50;;;12.10;;
56581;SDS011;42463;52.214;21.238;2022-08-19T04:44:16;15.90;;;12.20;;
56581;SDS011;42463;52.214;21.238;2022-08-19T04:46:44;13.60;;;11.80;;
56581;SDS011;42463;52.214;21.238;2022-08-19T04:49:11;13.60;;;12.30;;
56581;SDS011;42463;52.214;21.238;2022-08-19T04:51:39;13.90;;;11.70;;
56581;SDS011;42463;52.214;21.238;2022-08-19T04:54:08;14.40;;;11.80;;
56581;SDS011;42463;52.214;21.238;2022-08-19T04:56:36;13.50;;;12.20;;
56581;SDS011;42463;52.214;21.238;2022-08-19T04:59:04;14.90;;;12.10;;
56581;SDS011;42463;52.214;21.238;2022-08-19T05:01:32;15.00;;;11.70;;
56581;SDS011;42463;52.214;21.238;2022-08-19T05:04:05;16.30;;;11.80;;
56581;SDS011;42463;52.214;21.238;2022-08-19T05:06:33;13.90;;;11.50;;
56581;SDS011;42463;52.214;21.238;2022-08-19T05:09:03;13.10;;;11.50;;
56581;SDS011;42463;52.214;21.238;2022-08-19T05:11:35;13.80;;;12.10;;
56581;SDS011;42463;52.214;21.238;2022-08-19T05:14:03;14.70;;;11.50;;
56581;SDS011;42463;52.214;21.238;2022-08-19T05:16:31;16.70;;;11.40;;
56581;SDS011;42463;52.214;21.238;2022-08-19T05:18:59;13.10;;;11.50;;
56581;SDS011;42463;52.214;21.238;2022-08-19T05:21:45;15.70;;;12.40;;
56581;SDS011;42463;52.214;21.238;2022-08-19T05:24:30;13.10;;;11.80;;
56581;SDS011;42463;52.214;21.238;2022-08-19T05:27:00;16.30;;;11.80;;
56581;SDS011;42463;52.214;21.238;2022-08-19T05:29:30;15.10;;;12.30;;
56581;SDS011;42463;52.214;21.238;2022-08-19T05:31:59;13.90;;;11.70;;
56581;SDS011;42463;52.214;21.238;2022-08-19T05:37:05;13.90;;;10.90;;
56581;SDS011;42463;52.214;21.238;2022-08-19T05:39:35;16.70;;;11.90;;
56581;SDS011;42463;52.214;21.238;2022-08-19T05:42:07;13.30;;;11.30;;
56581;SDS011;42463;52.214;21.238;2022-08-19T05:44:37;14.00;;;11.90;;
56581;SDS011;42463;52.214;21.238;2022-08-19T05:47:08;13.60;;;11.90;;
56581;SDS011;42463;52.214;21.238;2022-08-19T05:49:41;13.50;;;11.30;;
56581;SDS011;42463;52.214;21.238;2022-08-19T05:52:15;13.40;;;12.00;;
56581;SDS011;42463;52.214;21.238;2022-08-19T05:54:46;16.90;;;12.10;;
56581;SDS011;42463;52.214;21.238;2022-08-19T05:57:14;13.80;;;11.40;;
56581;SDS011;42463;52.214;21.238;2022-08-19T05:59:42;15.60;;;11.70;;
56581;SDS011;42463;52.214;21.238;2022-08-19T06:02:09;13.40;;;11.60;;
56581;SDS011;42463;52.214;21.238;2022-08-19T06:04:40;14.10;;;12.40;;
56581;SDS011;42463;52.214;21.238;2022-08-19T06:07:07;14.50;;;12.30;;
56581;SDS011;42463;52.214;21.238;2022-08-19T06:09:34;14.60;;;11.90;;
56581;SDS011;42463;52.214;21.238;2022-08-19T06:12:04;16.60;;;12.30;;
56581;SDS011;42463;52.214;21.238;2022-08-19T06:14:33;16.10;;;13.00;;
56581;SDS011;42463;52.214;21.238;2022-08-19T06:17:01;13.30;;;11.90;;
56581;SDS011;42463;52.214;21.238;2022-08-19T06:19:30;15.40;;;12.40;;
56581;SDS011;42463;52.214;21.238;2022-08-19T06:22:00;13.60;;;12.30;;
56581;SDS011;42463;52.214;21.238;2022-08-19T06:24:30;15.50;;;12.40;;
56581;SDS011;42463;52.214;21.238;2022-08-19T06:26:59;14.20;;;12.70;;
56581;SDS011;42463;52.214;21.238;2022-08-19T06:29:27;14.70;;;13.10;;
56581;SDS011;42463;52.214;21.238;2022-08-19T06:32:02;14.70;;;12.20;;
56581;SDS011;42463;52.214;21.238;2022-08-19T06:34:30;14.90;;;13.10;;
56581;SDS011;42463;52.214;21.238;2022-08-19T06:37:01;17.60;;;12.60;;
56581;SDS011;42463;52.214;21.238;2022-08-19T06:39:30;16.10;;;13.20;;
56581;SDS011;42463;52.214;21.238;2022-08-19T06:42:04;18.20;;;12.40;;
56581;SDS011;42463;52.214;21.238;2022-08-19T06:44:36;16.50;;;12.80;;
56581;SDS011;42463;52.214;21.238;2022-08-19T06:47:09;16.30;;;12.80;;
56581;SDS011;42463;52.214;21.238;2022-08-19T06:49:38;16.30;;;13.50;;
56581;SDS011;42463;52.214;21.238;2022-08-19T06:52:06;14.60;;;13.00;;
56581;SDS011;42463;52.214;21.238;2022-08-19T06:54:35;18.50;;;13.10;;
56581;SDS011;42463;52.214;21.238;2022-08-19T06:57:03;18.30;;;13.50;;
56581;SDS011;42463;52.214;21.238;2022-08-19T06:59:32;16.00;;;12.90;;
56581;SDS011;42463;52.214;21.238;2022-08-19T07:02:04;15.30;;;12.80;;
56581;SDS011;42463;52.214;21.238;2022-08-19T07:04:34;14.20;;;12.50;;
56581;SDS011;42463;52.214;21.238;2022-08-19T07:07:03;15.40;;;13.80;;
56581;SDS011;42463;52.214;21.238;2022-08-19T07:09:35;17.60;;;12.70;;
56581;SDS011;42463;52.214;21.238;2022-08-19T07:12:03;14.90;;;13.30;;
56581;SDS011;42463;52.214;21.238;2022-08-19T07:14:30;16.30;;;12.80;;
56581;SDS011;42463;52.214;21.238;2022-08-19T07:16:59;14.30;;;12.40;;
56581;SDS011;42463;52.214;21.238;2022-08-19T07:19:28;16.40;;;13.50;;
56581;SDS011;42463;52.214;21.238;2022-08-19T07:21:57;15.40;;;13.30;;
56581;SDS011;42463;52.214;21.238;2022-08-19T07:24:26;14.10;;;12.70;;
56581;SDS011;42463;52.214;21.238;2022-08-19T07:26:54;16.40;;;13.70;;
56581;SDS011;42463;52.214;21.238;2022-08-19T07:29:24;14.70;;;12.60;;
56581;SDS011;42463;52.214;21.238;2022-08-19T07:31:54;18.30;;;13.50;;
56581;SDS011;42463;52.214;21.238;2022-08-19T07:34:25;15.10;;;13.30;;
56581;SDS011;42463;52.214;21.238;2022-08-19T07:36:56;17.30;;;13.20;;
56581;SDS011;42463;52.214;21.238;2022-08-19T07:39:28;16.30;;;13.50;;
56581;SDS011;42463;52.214;21.238;2022-08-19T07:41:59;14.70;;;13.10;;
56581;SDS011;42463;52.214;21.238;2022-08-19T07:44:34;14.50;;;12.80;;
56581;SDS011;42463;52.214;21.238;2022-08-19T07:47:04;14.50;;;12.80;;
56581;SDS011;42463;52.214;21.238;2022-08-19T07:49:32;17.60;;;12.60;;
56581;SDS011;42463;52.214;21.238;2022-08-19T07:52:00;15.10;;;12.20;;
56581;SDS011;42463;52.214;21.238;2022-08-19T07:54:30;16.20;;;13.20;;
56581;SDS011;42463;52.214;21.238;2022-08-19T07:56:59;17.40;;;12.40;;
56581;SDS011;42463;52.214;21.238;2022-08-19T07:59:27;15.90;;;12.10;;
56581;SDS011;42463;52.214;21.238;2022-08-19T08:01:54;14.40;;;11.90;;
56581;SDS011;42463;52.214;21.238;2022-08-19T08:04:25;13.90;;;12.40;;
56581;SDS011;42463;52.214;21.238;2022-08-19T08:07:10;14.10;;;12.60;;
56581;SDS011;42463;52.214;21.238;2022-08-19T08:09:54;14.60;;;12.40;;
56581;SDS011;42463;52.214;21.238;2022-08-19T08:12:28;16.00;;;12.90;;
56581;SDS011;42463;52.214;21.238;2022-08-19T08:15:00;12.60;;;11.30;;
56581;SDS011;42463;52.214;21.238;2022-08-19T08:17:34;14.70;;;12.00;;
56581;SDS011;42463;52.214;21.238;2022-08-19T08:20:05;13.40;;;12.00;;
56581;SDS011;42463;52.214;21.238;2022-08-19T08:22:33;13.80;;;12.50;;
56581;SDS011;42463;52.214;21.238;2022-08-19T08:25:18;15.00;;;11.90;;
56581;SDS011;42463;52.214;21.238;2022-08-19T08:27:49;15.10;;;12.90;;
56581;SDS011;42463;52.214;21.238;2022-08-19T08:30:17;16.00;;;12.00;;
56581;SDS011;42463;52.214;21.238;2022-08-19T08:32:48;15.00;;;12.20;;
56581;SDS011;42463;52.214;21.238;2022-08-19T08:35:16;16.50;;;12.90;;
56581;SDS011;42463;52.214;21.238;2022-08-19T08:37:48;16.30;;;12.00;;
56581;SDS011;42463;52.214;21.238;2022-08-19T08:40:18;14.60;;;12.20;;
56581;SDS011;42463;52.214;21.238;2022-08-19T08:42:53;15.30;;;12.20;;
56581;SDS011;42463;52.214;21.238;2022-08-19T08:45:25;13.90;;;12.30;;
56581;SDS011;42463;52.214;21.238;2022-08-19T08:47:55;16.00;;;11.80;;
56581;SDS011;42463;52.214;21.238;2022-08-19T08:50:29;16.10;;;12.10;;
56581;SDS011;42463;52.214;21.238;2022-08-19T08:55:28;14.30;;;11.60;;
56581;SDS011;42463;52.214;21.238;2022-08-19T08:57:58;12.20;;;11.00;;
56581;SDS011;42463;52.214;21.238;2022-08-19T09:00:30;12.30;;;10.80;;
56581;SDS011;42463;52.214;21.238;2022-08-19T09:02:59;12.60;;;11.30;;
56581;SDS011;42463;52.214;21.238;2022-08-19T09:05:35;13.80;;;11.80;;
56581;SDS011;42463;52.214;21.238;2022-08-19T09:08:13;13.80;;;12.40;;
56581;SDS011;42463;52.214;21.238;2022-08-19T09:10:49;13.10;;;11.70;;
56581;SDS011;42463;52.214;21.238;2022-08-19T09:13:23;12.60;;;11.20;;
56581;SDS011;42463;52.214;21.238;2022-08-19T09:16:00;15.00;;;11.70;;
56581;SDS011;42463;52.214;21.238;2022-08-19T09:18:43;13.70;;;11.80;;
56581;SDS011;42463;52.214;21.238;2022-08-19T09:21:15;14.30;;;11.20;;
56581;SDS011;42463;52.214;21.238;2022-08-19T09:23:43;14.60;;;12.80;;
56581;SDS011;42463;52.214;21.238;2022-08-19T09:26:12;13.60;;;11.20;;
56581;SDS011;42463;52.214;21.238;2022-08-19T09:28:41;13.60;;;11.20;;
56581;SDS011;42463;52.214;21.238;2022-08-19T09:31:09;13.70;;;10.70;;
56581;SDS011;42463;52.214;21.238;2022-08-19T09:33:36;14.80;;;11.60;;
56581;SDS011;42463;52.214;21.238;2022-08-19T09:36:10;12.50;;;10.70;;
56581;SDS011;42463;52.214;21.238;2022-08-19T09:38:38;11.30;;;10.10;;
56581;SDS011;42463;52.214;21.238;2022-08-19T09:41:08;12.30;;;10.70;;
56581;SDS011;42463;52.214;21.238;2022-08-19T09:43:40;12.10;;;10.90;;
56581;SDS011;42463;52.214;21.238;2022-08-19T09:46:10;11.60;;;10.50;;
56581;SDS011;42463;52.214;21.238;2022-08-19T09:48:40;12.50;;;10.50;;
56581;SDS011;42463;52.214;21.238;2022-08-19T09:51:09;13.50;;;11.20;;
56581;SDS011;42463;52.214;21.238;2022-08-19T09:53:41;14.00;;;10.70;;
56581;SDS011;42463;52.214;21.238;2022-08-19T09:56:10;18.30;;;10.10;;
56581;SDS011;42463;52.214;21.238;2022-08-19T09:58:38;12.20;;;9.80;;
56581;SDS011;42463;52.214;21.238;2022-08-19T10:01:05;12.80;;;10.00;;
56581;SDS011;42463;52.214;21.238;2022-08-19T10:03:32;11.50;;;10.10;;
56581;SDS011;42463;52.214;21.238;2022-08-19T10:06:04;11.70;;;9.80;;
56581;SDS011;42463;52.214;21.238;2022-08-19T10:08:34;12.80;;;10.00;;
56581;SDS011;42463;52.214;21.238;2022-08-19T10:11:03;11.20;;;9.50;;
56581;SDS011;42463;52.214;21.238;2022-08-19T10:13:34;13.90;;;9.40;;
56581;SDS011;42463;52.214;21.238;2022-08-19T10:16:06;15.70;;;10.00;;
56581;SDS011;42463;52.214;21.238;2022-08-19T10:18:36;13.30;;;10.10;;
56581;SDS011;42463;52.214;21.238;2022-08-19T10:21:09;12.10;;;10.40;;
56581;SDS011;42463;52.214;21.238;2022-08-19T10:23:37;12.00;;;9.50;;
56581;SDS011;42463;52.214;21.238;2022-08-19T10:26:10;11.20;;;9.40;;
56581;SDS011;42463;52.214;21.238;2022-08-19T10:28:38;11.50;;;10.30;;
56581;SDS011;42463;52.214;21.238;2022-08-19T10:31:10;11.80;;;8.90;;
56581;SDS011;42463;52.214;21.238;2022-08-19T10:33:45;14.30;;;9.60;;
56581;SDS011;42463;52.214;21.238;2022-08-19T10:36:15;10.80;;;9.00;;
56581;SDS011;42463;52.214;21.238;2022-08-19T10:38:47;12.60;;;8.40;;
56581;SDS011;42463;52.214;21.238;2022-08-19T10:41:16;12.80;;;9.20;;
56581;SDS011;42463;52.214;21.238;2022-08-19T10:43:46;11.80;;;9.20;;
56581;SDS011;42463;52.214;21.238;2022-08-19T10:46:16;11.90;;;8.60;;
56581;SDS011;42463;52.214;21.238;2022-08-19T10:48:43;9.40;;;7.90;;
56581;SDS011;42463;52.214;21.238;2022-08-19T10:51:12;10.80;;;8.80;;
56581;SDS011;42463;52.214;21.238;2022-08-19T10:53:57;9.80;;;8.70;;
56581;SDS011;42463;52.214;21.238;2022-08-19T10:56:24;9.80;;;8.50;;
56581;SDS011;42463;52.214;21.238;2022-08-19T10:59:11;13.40;;;8.50;;
56581;SDS011;42463;52.214;21.238;2022-08-19T11:01:39;10.20;;;7.90;;
56581;SDS011;42463;52.214;21.238;2022-08-19T11:04:11;10.40;;;7.90;;
56581;SDS011;42463;52.214;21.238;2022-08-19T11:06:42;9.20;;;7.90;;
56581;SDS011;42463;52.214;21.238;2022-08-19T11:09:11;9.20;;;7.90;;
56581;SDS011;42463;52.214;21.238;2022-08-19T11:11:39;9.00;;;8.20;;
56581;SDS011;42463;52.214;21.238;2022-08-19T11:14:06;12.60;;;7.60;;
56581;SDS011;42463;52.214;21.238;2022-08-19T11:16:34;9.70;;;7.90;;
56581;SDS011;42463;52.214;21.238;2022-08-19T11:19:02;10.90;;;8.10;;
56581;SDS011;42463;52.214;21.238;2022-08-19T11:21:32;9.80;;;7.90;;
56581;SDS011;42463;52.214;21.238;2022-08-19T11:24:03;9.60;;;8.20;;
56581;SDS011;42463;52.214;21.238;2022-08-19T11:26:33;9.10;;;7.60;;
56581;SDS011;42463;52.214;21.238;2022-08-19T11:29:08;9.00;;;8.00;;
56581;SDS011;42463;52.214;21.238;2022-08-19T11:31:38;11.90;;;8.00;;
56581;SDS011;42463;52.214;21.238;2022-08-19T11:34:07;11.10;;;7.80;;
56581;SDS011;42463;52.214;21.238;2022-08-19T11:36:36;9.30;;;8.10;;
56581;SDS011;42463;52.214;21.238;2022-08-19T11:39:07;9.50;;;8.10;;
56581;SDS011;42463;52.214;21.238;2022-08-19T11:41:37;13.40;;;8.20;;
56581;SDS011;42463;52.214;21.238;2022-08-19T11:44:05;9.20;;;8.30;;
56581;SDS011;42463;52.214;21.238;2022-08-19T11:46:33;9.40;;;8.30;;
56581;SDS011;42463;52.214;21.238;2022-08-19T11:49:01;12.90;;;8.60;;
56581;SDS011;42463;52.214;21.238;2022-08-19T11:51:31;9.40;;;8.20;;
56581;SDS011;42463;52.214;21.238;2022-08-19T11:53:58;9.70;;;7.60;;
56581;SDS011;42463;52.214;21.238;2022-08-19T11:56:27;9.80;;;7.40;;
56581;SDS011;42463;52.214;21.238;2022-08-19T11:58:55;12.70;;;7.40;;
56581;SDS011;42463;52.214;21.238;2022-08-19T12:01:23;11.40;;;7.50;;
56581;SDS011;42463;52.214;21.238;2022-08-19T12:03:52;8.50;;;7.10;;
56581;SDS011;42463;52.214;21.238;2022-08-19T12:06:23;9.60;;;7.50;;
56581;SDS011;42463;52.214;21.238;2022-08-19T12:08:59;11.60;;;7.70;;
56581;SDS011;42463;52.214;21.238;2022-08-19T12:11:27;11.10;;;7.70;;
56581;SDS011;42463;52.214;21.238;2022-08-19T12:13:55;11.10;;;7.60;;
56581;SDS011;42463;52.214;21.238;2022-08-19T12:16:25;12.30;;;6.90;;
56581;SDS011;42463;52.214;21.238;2022-08-19T12:18:55;9.10;;;7.30;;
56581;SDS011;42463;52.214;21.238;2022-08-19T12:21:27;10.70;;;7.60;;
56581;SDS011;42463;52.214;21.238;2022-08-19T12:23:55;11.90;;;8.20;;
56581;SDS011;42463;52.214;21.238;2022-08-19T12:26:28;14.70;;;7.80;;
56581;SDS011;42463;52.214;21.238;2022-08-19T12:28:55;12.70;;;7.10;;
56581;SDS011;42463;52.214;21.238;2022-08-19T12:31:23;11.70;;;8.40;;
56581;SDS011;42463;52.214;21.238;2022-08-19T12:33:52;14.80;;;7.30;;
56581;SDS011;42463;52.214;21.238;2022-08-19T12:36:19;8.60;;;6.90;;
56581;SDS011;42463;52.214;21.238;2022-08-19T12:38:46;9.70;;;6.80;;
56581;SDS011;42463;52.214;21.238;2022-08-19T12:41:18;9.90;;;6.30;;
56581;SDS011;42463;52.214;21.238;2022-08-19T12:43:45;9.80;;;7.00;;
56581;SDS011;42463;52.214;21.238;2022-08-19T12:46:14;11.20;;;6.80;;
56581;SDS011;42463;52.214;21.238;2022-08-19T12:48:42;8.50;;;6.30;;
56581;SDS011;42463;52.214;21.238;2022-08-19T12:51:12;7.70;;;6.20;;
56581;SDS011;42463;52.214;21.238;2022-08-19T12:53:40;10.30;;;6.70;;
56581;SDS011;42463;52.214;21.238;2022-08-19T12:56:07;8.60;;;6.40;;
56581;SDS011;42463;52.214;21.238;2022-08-19T12:58:38;11.50;;;6.70;;
56581;SDS011;42463;52.214;21.238;2022-08-19T13:01:10;8.80;;;6.80;;
56581;SDS011;42463;52.214;21.238;2022-08-19T13:03:38;14.50;;;7.40;;
56581;SDS011;42463;52.214;21.238;2022-08-19T13:06:06;7.90;;;6.80;;
56581;SDS011;42463;52.214;21.238;2022-08-19T13:08:34;9.60;;;7.20;;
56581;SDS011;42463;52.214;21.238;2022-08-19T13:11:11;10.50;;;6.70;;
56581;SDS011;42463;52.214;21.238;2022-08-19T13:13:42;10.10;;;7.00;;
56581;SDS011;42463;52.214;21.238;2022-08-19T13:16:12;9.00;;;6.90;;
56581;SDS011;42463;52.214;21.238;2022-08-19T13:18:40;10.90;;;7.40;;
56581;SDS011;42463;52.214;21.238;2022-08-19T13:21:10;12.10;;;6.90;;
56581;SDS011;42463;52.214;21.238;2022-08-19T13:23:38;9.00;;;6.00;;
56581;SDS011;42463;52.214;21.238;2022-08-19T13:26:07;9.20;;;6.30;;
56581;SDS011;42463;52.214;21.238;2022-08-19T13:28:36;6.60;;;6.00;;
56581;SDS011;42463;52.214;21.238;2022-08-19T13:31:19;11.40;;;6.50;;
56581;SDS011;42463;52.214;21.238;2022-08-19T13:34:04;10.00;;;6.30;;
56581;SDS011;42463;52.214;21.238;2022-08-19T13:36:32;9.40;;;7.00;;
56581;SDS011;42463;52.214;21.238;2022-08-19T13:39:00;10.50;;;6.70;;
56581;SDS011;42463;52.214;21.238;2022-08-19T13:41:27;8.80;;;7.20;;
56581;SDS011;42463;52.214;21.238;2022-08-19T13:43:55;11.60;;;7.30;;
56581;SDS011;42463;52.214;21.238;2022-08-19T13:46:22;11.20;;;7.10;;
56581;SDS011;42463;52.214;21.238;2022-08-19T13:48:48;11.20;;;6.00;;
56581;SDS011;42463;52.214;21.238;2022-08-19T13:51:16;7.80;;;6.90;;
56581;SDS011;42463;52.214;21.238;2022-08-19T13:53:43;9.50;;;7.00;;
56581;SDS011;42463;52.214;21.238;2022-08-19T13:56:13;8.70;;;6.70;;
56581;SDS011;42463;52.214;21.238;2022-08-19T13:58:43;8.40;;;6.90;;
56581;SDS011;42463;52.214;21.238;2022-08-19T14:01:11;11.40;;;6.60;;
56581;SDS011;42463;52.214;21.238;2022-08-19T14:03:51;8.70;;;6.60;;
56581;SDS011;42463;52.214;21.238;2022-08-19T14:06:19;10.10;;;7.00;;
56581;SDS011;42463;52.214;21.238;2022-08-19T14:08:48;10.90;;;7.70;;
56581;SDS011;42463;52.214;21.238;2022-08-19T14:11:16;10.50;;;7.30;;
56581;SDS011;42463;52.214;21.238;2022-08-19T14:13:43;10.40;;;6.60;;
56581;SDS011;42463;52.214;21.238;2022-08-19T14:16:13;9.90;;;7.00;;
56581;SDS011;42463;52.214;21.238;2022-08-19T14:18:39;10.30;;;6.60;;
56581;SDS011;42463;52.214;21.238;2022-08-19T14:21:13;15.30;;;7.50;;
56581;SDS011;42463;52.214;21.238;2022-08-19T14:23:43;8.80;;;6.90;;
56581;SDS011;42463;52.214;21.238;2022-08-19T14:26:12;8.20;;;6.60;;
56581;SDS011;42463;52.214;21.238;2022-08-19T14:28:40;10.00;;;6.70;;
56581;SDS011;42463;52.214;21.238;2022-08-19T14:31:09;13.80;;;7.30;;
56581;SDS011;42463;52.214;21.238;2022-08-19T14:33:39;8.90;;;6.60;;
56581;SDS011;42463;52.214;21.238;2022-08-19T14:36:06;9.90;;;6.00;;
56581;SDS011;42463;52.214;21.238;2022-08-19T14:38:34;9.20;;;6.50;;
56581;SDS011;42463;52.214;21.238;2022-08-19T14:41:10;9.30;;;6.80;;
56581;SDS011;42463;52.214;21.238;2022-08-19T14:43:40;9.20;;;6.30;;
56581;SDS011;42463;52.214;21.238;2022-08-19T14:46:09;9.20;;;6.60;;
56581;SDS011;42463;52.214;21.238;2022-08-19T14:48:37;10.30;;;6.80;;
56581;SDS011;42463;52.214;21.238;2022-08-19T14:51:05;10.60;;;6.80;;
56581;SDS011;42463;52.214;21.238;2022-08-19T14:53:33;7.60;;;6.80;;
56581;SDS011;42463;52.214;21.238;2022-08-19T14:56:09;7.60;;;6.80;;
56581;SDS011;42463;52.214;21.238;2022-08-19T14:58:37;8.70;;;6.50;;
56581;SDS011;42463;52.214;21.238;2022-08-19T15:01:05;9.80;;;6.40;;
56581;SDS011;42463;52.214;21.238;2022-08-19T15:03:33;9.80;;;6.20;;
56581;SDS011;42463;52.214;21.238;2022-08-19T15:06:03;8.10;;;6.70;;
56581;SDS011;42463;52.214;21.238;2022-08-19T15:08:36;8.00;;;6.80;;
56581;SDS011;42463;52.214;21.238;2022-08-19T15:11:10;9.00;;;6.10;;
56581;SDS011;42463;52.214;21.238;2022-08-19T15:13:39;11.40;;;6.70;;
56581;SDS011;42463;52.214;21.238;2022-08-19T15:16:07;10.00;;;6.30;;
56581;SDS011;42463;52.214;21.238;2022-08-19T15:18:35;7.90;;;6.20;;
56581;SDS011;42463;52.214;21.238;2022-08-19T15:21:01;7.00;;;6.10;;
56581;SDS011;42463;52.214;21.238;2022-08-19T15:23:30;10.70;;;6.70;;
56581;SDS011;42463;52.214;21.238;2022-08-19T15:25:58;7.20;;;6.50;;
56581;SDS011;42463;52.214;21.238;2022-08-19T15:28:26;10.00;;;6.70;;
56581;SDS011;42463;52.214;21.238;2022-08-19T15:30:54;7.70;;;6.70;;
56581;SDS011;42463;52.214;21.238;2022-08-19T15:33:22;7.20;;;6.60;;
56581;SDS011;42463;52.214;21.238;2022-08-19T15:35:49;9.90;;;6.70;;
56581;SDS011;42463;52.214;21.238;2022-08-19T15:38:17;11.70;;;7.40;;
56581;SDS011;42463;52.214;21.238;2022-08-19T15:40:47;8.10;;;6.30;;
56581;SDS011;42463;52.214;21.238;2022-08-19T15:43:16;9.00;;;6.00;;
56581;SDS011;42463;52.214;21.238;2022-08-19T15:45:47;7.90;;;6.90;;
56581;SDS011;42463;52.214;21.238;2022-08-19T15:48:17;8.60;;;6.70;;
56581;SDS011;42463;52.214;21.238;2022-08-19T15:50:43;8.30;;;6.60;;
56581;SDS011;42463;52.214;21.238;2022-08-19T15:53:11;7.10;;;6.20;;
56581;SDS011;42463;52.214;21.238;2022-08-19T15:55:43;13.30;;;6.70;;
56581;SDS011;42463;52.214;21.238;2022-08-19T15:58:13;8.20;;;6.20;;
56581;SDS011;42463;52.214;21.238;2022-08-19T16:00:58;8.60;;;6.40;;
56581;SDS011;42463;52.214;21.238;2022-08-19T16:03:45;11.90;;;6.40;;
56581;SDS011;42463;52.214;21.238;2022-08-19T16:06:31;9.40;;;5.40;;